createdAt,value
2022-11-22T00:00:43.336Z,94636.97
2022-11-22T00:03:10.316Z,94641.75
2022-11-22T00:05:37.508Z,94642.19
2022-11-22T00:08:05.415Z,94643.56
2022-11-22T00:10:32.870Z,94647.75
2022-11-22T00:12:59.943Z,94646.97
2022-11-22T00:15:26.922Z,94655.75
2022-11-22T00:17:53.711Z,94657.38
2022-11-22T00:20:21.015Z,94658.63
2022-11-22T00:22:47.891Z,94651.38
2022-11-22T00:25:15.125Z,94658.19
2022-11-22T00:27:42.120Z,94657.59
2022-11-22T00:30:09.784Z,94643.00
2022-11-22T00:32:36.894Z,94645.16
2022-11-22T00:35:04.976Z,94656.19
2022-11-22T00:37:31.895Z,94658.19
2022-11-22T00:39:58.741Z,94655.78
2022-11-22T00:42:25.562Z,94648.38
2022-11-22T00:44:52.393Z,94637.34
2022-11-22T00:47:19.242Z,94644.16
2022-11-22T00:49:46.077Z,94647.53
2022-11-22T00:52:12.995Z,94644.97
2022-11-22T00:54:39.903Z,94647.75
2022-11-22T00:57:06.720Z,94643.53
2022-11-22T00:59:33.605Z,94652.97
2022-11-22T01:02:00.416Z,94644.53
2022-11-22T01:04:27.272Z,94648.16
2022-11-22T01:06:54.139Z,94654.16
2022-11-22T01:09:23.134Z,94658.97
2022-11-22T01:11:50.208Z,94651.34
2022-11-22T01:14:17.720Z,94656.16
2022-11-22T01:16:45.174Z,94653.13
2022-11-22T01:19:12.375Z,94671.00
2022-11-22T01:21:39.944Z,94679.78
2022-11-22T01:24:07.391Z,94667.59
2022-11-22T01:26:34.861Z,94669.56
2022-11-22T01:29:01.948Z,94677.78
2022-11-22T01:31:29.987Z,94668.19
2022-11-22T01:33:58.787Z,94673.78
2022-11-22T01:36:26.704Z,94670.56
2022-11-22T01:38:53.740Z,94663.00
2022-11-22T01:41:20.689Z,94662.56
2022-11-22T01:43:47.521Z,94651.97
2022-11-22T01:46:30.471Z,94648.38
2022-11-22T01:49:05.439Z,94637.53
2022-11-22T01:51:42.810Z,94658.16
2022-11-22T01:54:18.090Z,94649.72
2022-11-22T01:56:51.067Z,94657.75
2022-11-22T01:59:22.351Z,94634.53
2022-11-22T02:01:49.451Z,94622.69
2022-11-22T02:04:18.627Z,94632.13
2022-11-22T02:07:11.499Z,94618.91
2022-11-22T02:09:40.473Z,94628.09
2022-11-22T02:12:09.059Z,94636.50
2022-11-22T02:14:36.408Z,94631.28
2022-11-22T02:17:03.309Z,94632.50
2022-11-22T02:19:43.048Z,94641.69
2022-11-22T02:22:34.061Z,94635.28
2022-11-22T02:25:21.749Z,94646.09
2022-11-22T02:27:50.464Z,94631.91
2022-11-22T02:30:17.928Z,94630.09
2022-11-22T02:32:45.230Z,94628.09
2022-11-22T02:35:21.299Z,94635.91
2022-11-22T02:37:52.537Z,94633.28
2022-11-22T02:40:20.677Z,94645.78
2022-11-22T02:43:06.359Z,94647.75
2022-11-22T02:45:33.419Z,94641.72
2022-11-22T02:48:09.216Z,94642.53
2022-11-22T02:50:36.448Z,94651.72
2022-11-22T02:53:04.140Z,94646.88
2022-11-22T02:55:30.985Z,94642.84
2022-11-22T02:57:57.950Z,94637.03
2022-11-22T03:00:24.813Z,94644.84
2022-11-22T03:02:51.728Z,94637.59
2022-11-22T03:05:18.855Z,94640.41
2022-11-22T03:07:45.723Z,94644.34
2022-11-22T03:10:12.620Z,94642.34
2022-11-22T03:12:39.496Z,94649.94
2022-11-22T03:15:06.763Z,94652.75
2022-11-22T03:17:33.557Z,94649.34
2022-11-22T03:20:00.400Z,94652.75
2022-11-22T03:22:27.299Z,94653.13
2022-11-22T03:24:54.087Z,94655.31
2022-11-22T03:27:21.050Z,94656.34
2022-11-22T03:29:47.822Z,94663.19
2022-11-22T03:32:14.703Z,94653.78
2022-11-22T03:34:41.512Z,94665.47
2022-11-22T03:37:08.328Z,94666.88
2022-11-22T03:39:35.172Z,94657.91
2022-11-22T03:42:01.982Z,94656.91
2022-11-22T03:44:28.821Z,94660.50
2022-11-22T03:46:55.620Z,94670.50
2022-11-22T03:49:22.477Z,94664.88
2022-11-22T03:51:49.266Z,94663.66
2022-11-22T03:54:16.130Z,94664.03
2022-11-22T03:56:42.954Z,94664.84
2022-11-22T03:59:09.739Z,94674.84
2022-11-22T04:01:36.617Z,94678.03
2022-11-22T04:04:03.496Z,94673.22
2022-11-22T04:06:30.330Z,94671.38
2022-11-22T04:08:57.493Z,94679.97
2022-11-22T04:11:24.458Z,94669.19
2022-11-22T04:14:09.738Z,94673.97
2022-11-22T04:16:36.583Z,94687.97
2022-11-22T04:19:03.395Z,94693.63
2022-11-22T04:21:36.264Z,94687.16
2022-11-22T04:24:28.064Z,94688.19
2022-11-22T04:26:56.564Z,94694.81
2022-11-22T04:29:23.836Z,94690.03
2022-11-22T04:32:10.040Z,94692.63
2022-11-22T04:34:37.282Z,94692.41
2022-11-22T04:37:05.158Z,94695.41
2022-11-22T04:39:32.425Z,94698.00
2022-11-22T04:42:18.395Z,94699.63
2022-11-22T04:44:46.116Z,94687.16
2022-11-22T04:47:36.773Z,94695.56
2022-11-22T04:50:27.282Z,94692.38
2022-11-22T04:52:57.430Z,94696.00
2022-11-22T04:55:24.537Z,94700.59
2022-11-22T04:57:57.502Z,94693.97
2022-11-22T05:00:27.526Z,94694.41
2022-11-22T05:02:54.518Z,94691.56
2022-11-22T05:05:21.296Z,94690.38
2022-11-22T05:07:48.196Z,94701.97
2022-11-22T05:10:15.355Z,94700.38
2022-11-22T05:12:42.353Z,94700.38
2022-11-22T05:15:11.274Z,94695.56
2022-11-22T05:17:38.752Z,94693.97
2022-11-22T05:20:07.968Z,94700.78
2022-11-22T05:22:53.811Z,94700.38
2022-11-22T05:25:25.312Z,94696.75
2022-11-22T05:27:54.454Z,94705.78
2022-11-22T05:30:21.346Z,94711.59
2022-11-22T05:32:48.117Z,94711.34
2022-11-22T05:35:15.065Z,94715.19
2022-11-22T05:37:41.897Z,94716.38
2022-11-22T05:40:09.920Z,94717.97
2022-11-22T05:42:36.729Z,94721.59
2022-11-22T05:45:04.145Z,94710.56
2022-11-22T05:47:35.777Z,94712.75
2022-11-22T05:50:04.052Z,94719.16
2022-11-22T05:52:31.381Z,94730.78
2022-11-22T05:54:58.332Z,94723.53
2022-11-22T05:57:25.470Z,94723.13
2022-11-22T05:59:52.545Z,94718.69
2022-11-22T06:02:19.880Z,94719.84
2022-11-22T06:04:46.780Z,94717.84
2022-11-22T06:07:13.675Z,94721.03
2022-11-22T06:09:40.592Z,94718.69
2022-11-22T06:12:07.681Z,94720.47
2022-11-22T06:14:39.973Z,94714.47
2022-11-22T06:17:09.704Z,94723.47
2022-11-22T06:19:36.481Z,94727.09
2022-11-22T06:22:03.530Z,94728.28
2022-11-22T06:24:30.301Z,94734.66
2022-11-22T06:26:57.126Z,94724.03
2022-11-22T06:29:24.117Z,94723.84
2022-11-22T06:31:50.912Z,94733.03
2022-11-22T06:34:17.715Z,94725.47
2022-11-22T06:36:44.569Z,94740.31
2022-11-22T06:39:11.469Z,94743.94
2022-11-22T06:41:38.684Z,94750.31
2022-11-22T06:44:07.949Z,94751.16
2022-11-22T06:46:36.291Z,94752.75
2022-11-22T06:49:03.807Z,94753.94
2022-11-22T06:51:32.286Z,94750.72
2022-11-22T06:53:59.313Z,94745.88
2022-11-22T06:56:30.559Z,94756.63
2022-11-22T06:58:57.927Z,94761.66
2022-11-22T07:01:28.447Z,94759.22
2022-11-22T07:03:58.554Z,94770.28
2022-11-22T07:06:29.194Z,94780.72
2022-11-22T07:08:56.604Z,94775.50
2022-11-22T07:11:26.984Z,94781.16
2022-11-22T07:13:57.300Z,94778.53
2022-11-22T07:16:28.250Z,94786.75
2022-11-22T07:18:55.044Z,94792.75
2022-11-22T07:21:24.296Z,94800.28
2022-11-22T07:23:53.844Z,94807.09
2022-11-22T07:26:23.413Z,94811.25
2022-11-22T07:28:50.302Z,94811.63
2022-11-22T07:31:18.660Z,94815.03
2022-11-22T07:33:46.180Z,94812.41
2022-11-22T07:36:22.057Z,94806.06
2022-11-22T07:38:49.752Z,94813.06
2022-11-22T07:41:18.921Z,94816.22
2022-11-22T07:43:46.927Z,94815.19
2022-11-22T07:46:30.974Z,94814.94
2022-11-22T07:48:59.032Z,94817.72
2022-11-22T07:51:26.205Z,94822.09
2022-11-22T07:53:54.516Z,94819.06
2022-11-22T07:56:21.675Z,94822.88
2022-11-22T07:58:48.499Z,94827.66
2022-11-22T08:01:17.863Z,94833.22
2022-11-22T08:03:45.980Z,94842.38
2022-11-22T08:06:14.038Z,94840.72
2022-11-22T08:08:41.270Z,94850.91
2022-11-22T08:11:08.304Z,94860.72
2022-11-22T08:13:35.891Z,94862.75
2022-11-22T08:16:06.463Z,94850.25
2022-11-22T08:18:34.871Z,94854.22
2022-11-22T08:21:10.330Z,94861.06
2022-11-22T08:23:38.417Z,94860.19
2022-11-22T08:26:07.544Z,94871.25
2022-11-22T08:28:35.022Z,94875.38
2022-11-22T08:31:08.584Z,94875.75
2022-11-22T08:33:35.810Z,94885.78
2022-11-22T08:36:02.930Z,94887.38
2022-11-22T08:38:30.151Z,94895.38
2022-11-22T08:40:56.985Z,94895.75
2022-11-22T08:43:24.483Z,94906.16
2022-11-22T08:45:57.307Z,94893.22
2022-11-22T08:48:28.243Z,94906.03
2022-11-22T08:51:01.616Z,94912.44
2022-11-22T08:53:31.915Z,94911.56
2022-11-22T08:56:03.077Z,94912.97
2022-11-22T08:58:32.108Z,94918.53
2022-11-22T09:01:05.554Z,94916.59
2022-11-22T09:03:33.601Z,94920.16
2022-11-22T09:09:08.569Z,94917.97
2022-11-22T09:11:40.462Z,94918.97
2022-11-22T09:14:07.328Z,94914.44
2022-11-22T09:16:34.187Z,94926.47
2022-11-22T09:19:01.035Z,94921.44
2022-11-22T09:21:27.909Z,94930.47
2022-11-22T09:23:54.748Z,94931.53
2022-11-22T09:26:25.153Z,94930.91
2022-11-22T09:28:53.303Z,94925.16
2022-11-22T09:31:22.545Z,94930.44
2022-11-22T09:33:50.492Z,94933.63
2022-11-22T09:36:21.655Z,94928.97
2022-11-22T09:38:49.071Z,94939.78
2022-11-22T09:41:16.069Z,94935.03
2022-11-22T09:44:01.195Z,94941.44
2022-11-22T09:46:53.520Z,94948.56
2022-11-22T09:49:45.942Z,94949.28
2022-11-22T09:52:28.660Z,94952.81
2022-11-22T09:55:04.475Z,94954.53
2022-11-22T09:57:42.663Z,94953.59
2022-11-22T10:00:30.343Z,94952.06
2022-11-22T10:03:13.589Z,94955.03
2022-11-22T10:05:54.327Z,94959.47
2022-11-22T10:08:48.800Z,94961.53
2022-11-22T10:11:34.953Z,94972.97
2022-11-22T10:14:17.299Z,94970.16
2022-11-22T10:17:17.909Z,94967.03
2022-11-22T10:20:06.401Z,94968.88
2022-11-22T10:22:35.259Z,94964.75
2022-11-22T10:25:15.059Z,94958.84
2022-11-22T10:27:44.287Z,94968.41
2022-11-22T10:30:21.143Z,94958.44
2022-11-22T10:33:24.684Z,94957.91
2022-11-22T10:36:26.834Z,94963.28
2022-11-22T10:39:21.411Z,94965.66
2022-11-22T10:42:28.898Z,94970.13
2022-11-22T10:45:06.689Z,94960.19
2022-11-22T10:48:04.899Z,94963.16
2022-11-22T10:50:45.251Z,94960.63
2022-11-22T10:53:51.777Z,94956.53
2022-11-22T10:56:50.155Z,94953.09
2022-11-22T10:59:49.871Z,94950.25
2022-11-22T11:02:59.042Z,94945.31
2022-11-22T11:11:40.268Z,94942.09
2022-11-22T11:14:43.511Z,94938.97
2022-11-22T11:17:18.695Z,94942.00
2022-11-22T11:19:49.828Z,94941.22
2022-11-22T11:22:51.568Z,94942.91
2022-11-22T11:25:35.595Z,94941.69
2022-11-22T11:28:31.038Z,94943.97
2022-11-22T11:31:08.988Z,94943.56
2022-11-22T11:33:38.982Z,94946.06
2022-11-22T11:36:17.809Z,94948.88
2022-11-22T11:38:45.626Z,94945.81
2022-11-22T11:41:19.161Z,94938.16
2022-11-22T11:43:47.245Z,94930.78
2022-11-22T11:46:27.116Z,94942.72
2022-11-22T11:49:17.359Z,94944.69
2022-11-22T11:51:54.332Z,94934.34
2022-11-22T11:54:46.375Z,94938.81
2022-11-22T11:57:25.968Z,94935.78
2022-11-22T11:59:53.883Z,94938.88
2022-11-22T12:02:36.173Z,94935.91
2022-11-22T12:05:12.311Z,94935.19
2022-11-22T12:07:44.773Z,94931.72
2022-11-22T12:10:49.344Z,94932.38
2022-11-22T12:14:04.547Z,94928.16
2022-11-22T12:16:43.363Z,94924.19
2022-11-22T12:19:28.392Z,94932.69
2022-11-22T12:22:47.831Z,94922.22
2022-11-22T12:25:34.285Z,94921.97
2022-11-22T12:28:18.088Z,94918.00
2022-11-22T12:30:53.875Z,94916.78
2022-11-22T12:33:31.539Z,94921.97
2022-11-22T12:35:59.186Z,94923.09
2022-11-22T12:38:41.181Z,94915.22
2022-11-22T12:41:13.403Z,94915.66
2022-11-22T12:43:53.687Z,94918.22
2022-11-22T12:46:40.043Z,94912.13
2022-11-22T12:49:43.349Z,94918.75
2022-11-22T12:52:40.104Z,94918.56
2022-11-22T12:55:25.183Z,94916.06
2022-11-22T12:58:04.840Z,94921.69
2022-11-22T13:00:40.905Z,94927.31
2022-11-22T13:03:20.155Z,94926.63
2022-11-22T13:05:54.594Z,94922.16
2022-11-22T13:08:29.162Z,94928.31
2022-11-22T13:11:17.392Z,94922.50
2022-11-22T13:13:49.127Z,94920.81
2022-11-22T13:16:16.562Z,94909.94
2022-11-22T13:19:05.285Z,94919.19
2022-11-22T13:21:56.303Z,94914.41
2022-11-22T13:24:36.454Z,94917.22
2022-11-22T13:27:30.887Z,94910.03
2022-11-22T13:30:01.448Z,94918.84
2022-11-22T13:32:34.290Z,94917.69
2022-11-22T13:35:23.983Z,94922.03
2022-11-22T13:37:55.343Z,94911.44
2022-11-22T13:40:26.211Z,94917.91
2022-11-22T13:43:21.545Z,94938.78
2022-11-22T13:45:54.068Z,94934.66
2022-11-22T13:48:42.106Z,94933.97
2022-11-22T13:51:14.223Z,94935.53
2022-11-22T13:53:44.668Z,94937.47
2022-11-22T13:56:20.381Z,94946.28
2022-11-22T13:59:04.443Z,94938.81
2022-11-22T14:01:35.639Z,94943.19
2022-11-22T14:04:19.601Z,94940.88
2022-11-22T14:07:03.186Z,94939.28
2022-11-22T14:09:37.748Z,94945.94
2022-11-22T14:12:10.732Z,94947.28
2022-11-22T14:15:04.883Z,94943.66
2022-11-22T14:17:42.225Z,94940.69
2022-11-22T14:20:45.994Z,94944.41
2022-11-22T14:24:04.939Z,94953.41
2022-11-22T14:27:01.951Z,94953.59
2022-11-22T14:29:53.540Z,94956.50
2022-11-22T14:32:26.056Z,94952.84
2022-11-22T14:35:04.992Z,94967.47
2022-11-22T14:37:31.872Z,94971.78
2022-11-22T14:40:08.770Z,94970.78
2022-11-22T14:42:42.840Z,94974.50
2022-11-22T14:45:12.273Z,94972.66
2022-11-22T14:48:00.236Z,94970.63
2022-11-22T14:50:43.860Z,94985.91
2022-11-22T14:53:34.877Z,94983.88
2022-11-22T14:56:14.713Z,94977.84
2022-11-22T14:58:57.713Z,94979.53
2022-11-22T15:02:19.502Z,94987.59
2022-11-22T15:09:14.768Z,94993.34
2022-11-22T15:09:20.085Z,94989.28
2022-11-22T15:12:09.088Z,94987.53
2022-11-22T15:59:44.888Z,95026.59
2022-11-22T16:02:32.000Z,95024.56
2022-11-22T16:06:06.517Z,95027.59
2022-11-22T16:07:55.254Z,95024.63
2022-11-22T16:10:23.891Z,95034.28
2022-11-22T16:12:52.452Z,95032.69
2022-11-22T16:15:36.491Z,95034.28
2022-11-22T16:18:18.171Z,95029.91
2022-11-22T16:21:11.684Z,95029.91
2022-11-22T16:23:43.190Z,95037.97
2022-11-22T16:26:20.675Z,95039.78
2022-11-22T16:28:51.130Z,95052.88
2022-11-22T16:31:28.018Z,95052.72
2022-11-22T16:33:56.061Z,95047.34
2022-11-22T16:36:27.353Z,95036.88
2022-11-22T16:38:54.285Z,95048.13
2022-11-22T16:41:29.367Z,95038.88
2022-11-22T16:44:03.004Z,95042.09
2022-11-22T16:46:30.486Z,95036.72
2022-11-22T16:48:57.438Z,95049.78
2022-11-22T16:51:30.215Z,95046.59
2022-11-22T16:54:00.764Z,95050.66
2022-11-22T16:56:30.355Z,95056.69
2022-11-22T16:58:58.770Z,95055.53
2022-11-22T17:01:32.602Z,95054.34
2022-11-22T17:04:01.624Z,95049.97
2022-11-22T17:06:31.014Z,95063.63
2022-11-22T17:09:00.211Z,95056.00
2022-11-22T17:11:31.855Z,95057.22
2022-11-22T17:14:00.451Z,95054.44
2022-11-22T17:16:27.322Z,95061.09
2022-11-22T17:18:54.195Z,95054.88
2022-11-22T17:21:37.023Z,95069.00
2022-11-22T17:24:22.916Z,95069.00
2022-11-22T17:26:49.789Z,95071.44
2022-11-22T17:29:42.832Z,95071.88
2022-11-22T17:32:03.426Z,95069.47
2022-11-22T17:34:30.464Z,95075.09
2022-11-22T17:36:57.443Z,95071.50
2022-11-22T17:39:24.345Z,95073.09
2022-11-22T17:41:51.275Z,95071.13
2022-11-22T17:44:18.622Z,95068.31
2022-11-22T17:46:47.078Z,95072.34
2022-11-22T17:49:16.293Z,95078.00
2022-11-22T17:51:43.844Z,95077.00
2022-11-22T17:54:10.800Z,95068.13
2022-11-22T17:56:37.803Z,95077.22
2022-11-22T17:59:05.081Z,95070.38
2022-11-22T18:01:32.498Z,95075.59
2022-11-22T18:03:59.388Z,95079.22
2022-11-22T18:06:26.422Z,95078.81
2022-11-22T18:08:53.418Z,95083.03
2022-11-22T18:11:20.806Z,95075.59
2022-11-22T18:13:47.910Z,95082.00
2022-11-22T18:16:17.229Z,95087.66
2022-11-22T18:19:00.537Z,95084.44
2022-11-22T18:21:29.529Z,95092.09
2022-11-22T18:24:01.172Z,95082.84
2022-11-22T18:26:39.326Z,95083.66
2022-11-22T18:31:54.966Z,95087.53
2022-11-22T18:34:23.014Z,95092.94
2022-11-22T18:36:57.478Z,95097.53
2022-11-22T18:39:37.497Z,95093.53
2022-11-22T18:42:16.695Z,95087.69
2022-11-22T18:44:45.764Z,95100.13
2022-11-22T18:47:12.779Z,95095.72
2022-11-22T18:49:39.931Z,95095.72
2022-11-22T18:52:06.963Z,95104.38
2022-11-22T18:54:34.347Z,95100.16
2022-11-22T18:57:01.467Z,95109.00
2022-11-22T18:59:28.515Z,95105.81
2022-11-22T19:01:58.405Z,95107.41
2022-11-22T19:04:25.330Z,95120.06
2022-11-22T19:06:52.221Z,95119.25
2022-11-22T19:09:19.399Z,95126.28
2022-11-22T19:11:46.407Z,95121.06
2022-11-22T19:14:13.662Z,95118.44
2022-11-22T19:16:40.716Z,95114.63
2022-11-22T19:19:11.962Z,95127.06
2022-11-22T19:21:38.977Z,95123.88
2022-11-22T19:24:06.325Z,95120.25
2022-11-22T19:26:33.343Z,95115.47
2022-11-22T19:29:02.751Z,95126.28
2022-11-22T19:31:31.531Z,95126.53
2022-11-22T19:33:59.467Z,95134.34
2022-11-22T19:36:33.218Z,95128.53
2022-11-22T19:39:02.601Z,95122.69
2022-11-22T19:41:30.924Z,95129.16
2022-11-22T19:43:58.419Z,95127.53
2022-11-22T19:46:26.521Z,95133.34
2022-11-22T19:48:55.953Z,95136.75
2022-11-22T19:51:24.235Z,95132.16
2022-11-22T19:53:59.324Z,95137.16
2022-11-22T19:56:32.053Z,95131.94
2022-11-22T19:59:01.662Z,95146.00
2022-11-22T20:01:34.784Z,95134.16
2022-11-22T20:04:06.278Z,95136.97
2022-11-22T20:06:36.160Z,95142.00
2022-11-22T20:09:14.113Z,95134.56
2022-11-22T20:11:45.664Z,95145.38
2022-11-22T20:14:12.559Z,95144.78
2022-11-22T20:16:42.883Z,95146.59
2022-11-22T20:19:12.163Z,95139.56
2022-11-22T20:21:39.830Z,95150.41
2022-11-22T20:24:07.639Z,95148.22
2022-11-22T20:26:34.729Z,95152.44
2022-11-22T20:29:08.063Z,95132.34
2022-11-22T20:31:37.162Z,95138.94
2022-11-22T20:34:04.391Z,95141.56
2022-11-22T20:36:34.382Z,95143.97
2022-11-22T20:39:06.799Z,95141.97
2022-11-22T20:41:37.763Z,95139.38
2022-11-22T20:44:04.918Z,95144.34
2022-11-22T20:46:31.699Z,95146.97
2022-11-22T20:48:58.539Z,95150.16
2022-11-22T20:51:29.103Z,95148.16
2022-11-22T20:54:00.132Z,95158.41
2022-11-22T20:56:27.185Z,95154.78
2022-11-22T20:58:54.409Z,95164.81
2022-11-22T21:01:24.748Z,95155.53
2022-11-22T21:03:52.769Z,95149.34
2022-11-22T21:06:21.555Z,95153.53
2022-11-22T21:08:49.237Z,95155.13
2022-11-22T21:11:26.066Z,95155.09
2022-11-22T21:13:53.797Z,95163.09
2022-11-22T21:16:24.922Z,95160.69
2022-11-22T21:18:56.202Z,95173.13
2022-11-22T21:21:25.053Z,95173.91
2022-11-22T21:23:55.078Z,95172.69
2022-11-22T21:26:24.330Z,95186.50
2022-11-22T21:28:52.687Z,95179.09
2022-11-22T21:31:20.880Z,95184.31
2022-11-22T21:33:48.091Z,95185.53
2022-11-22T21:36:15.039Z,95178.69
2022-11-22T21:38:42.040Z,95177.09
2022-11-22T21:44:02.027Z,95179.91
2022-11-22T21:46:29.031Z,95175.50
2022-11-22T21:48:56.065Z,95168.69
2022-11-22T21:51:25.730Z,95174.66
2022-11-22T21:54:00.168Z,95177.84
2022-11-22T21:56:27.633Z,95178.19
2022-11-22T21:58:54.711Z,95177.03
2022-11-22T22:01:22.513Z,95189.47
2022-11-22T22:03:49.541Z,95185.47
2022-11-22T22:06:16.390Z,95189.50
2022-11-22T22:08:43.246Z,95187.06
2022-11-22T22:11:10.115Z,95180.25
2022-11-22T22:13:37.042Z,95192.72
2022-11-22T22:16:12.696Z,95189.09
2022-11-22T22:18:39.567Z,95184.31
2022-11-22T22:21:09.533Z,95191.34
2022-11-22T22:23:38.287Z,95192.34
2022-11-22T22:26:08.455Z,95190.56
2022-11-22T22:28:37.471Z,95194.19
2022-11-22T22:31:21.562Z,95198.00
2022-11-22T22:33:56.950Z,95201.19
2022-11-22T22:36:26.017Z,95206.00
2022-11-22T22:38:54.118Z,95199.16
2022-11-22T22:41:20.951Z,95204.75
2022-11-22T22:43:48.905Z,95199.94
2022-11-22T22:46:19.823Z,95216.00
2022-11-22T22:48:48.244Z,95207.56
2022-11-22T22:51:30.659Z,95212.97
2022-11-22T22:53:59.091Z,95213.97
2022-11-22T22:56:28.530Z,95206.78
2022-11-22T22:58:56.933Z,95207.56
2022-11-22T23:01:26.919Z,95219.41
2022-11-22T23:03:59.402Z,95220.44
2022-11-22T23:06:30.399Z,95228.06
2022-11-22T23:08:58.377Z,95227.06
2022-11-22T23:11:47.051Z,95229.28
2022-11-22T23:14:18.425Z,95237.34
2022-11-22T23:16:45.609Z,95229.31
2022-11-22T23:19:12.670Z,95239.38
2022-11-22T23:21:39.723Z,95222.94
2022-11-22T23:24:07.997Z,95223.75
2022-11-22T23:26:35.093Z,95223.34
2022-11-22T23:29:02.043Z,95228.53
2022-11-22T23:31:28.917Z,95223.13
2022-11-22T23:33:55.805Z,95227.34
2022-11-22T23:36:23.182Z,95230.13
2022-11-22T23:38:49.973Z,95236.41
2022-11-22T23:41:20.082Z,95243.44
2022-11-22T23:43:47.874Z,95246.84
2022-11-22T23:46:18.334Z,95248.44
2022-11-22T23:48:47.181Z,95248.44
2022-11-22T23:51:15.980Z,95253.44
2022-11-22T23:53:43.056Z,95255.06
2022-11-22T23:56:15.079Z,95247.38
2022-11-22T23:58:44.996Z,95250.59
